Аэропорт: Ульяновск-Восточный. Ульяновск

ICAO: UWLW

METAR:
2019-11-21 09:00:00
UWLW 210900Z 00000MPS 8000 NSC M09/M14 Q1052 R02/CLRD60 NOSIG RMK QFE782
METAR:
2019-11-21 07:45:00
TAF UWLW 210745Z 2109/2209 29003MPS 8000 SCT033 TEMPO 2109/2121 VRB01MPS